sensor_id;sensor_type;location;lat;lon;timestamp;pressure;altitude;pressure_sealevel;temperature;humidity
61136;BME280;47021;51.340;12.432;2022-08-07T00:01:47;101113.44;;;18.38;48.66
61136;BME280;47021;51.340;12.432;2022-08-07T00:04:12;101112.63;;;18.38;48.52
61136;BME280;47021;51.340;12.432;2022-08-07T00:06:38;101114.97;;;18.23;48.81
61136;BME280;47021;51.340;12.432;2022-08-07T00:09:04;101114.28;;;18.21;49.14
61136;BME280;47021;51.340;12.432;2022-08-07T00:11:29;101114.59;;;18.00;49.48
61136;BME280;47021;51.340;12.432;2022-08-07T00:13:54;101119.81;;;18.10;49.50
61136;BME280;47021;51.340;12.432;2022-08-07T00:16:21;101113.22;;;18.14;49.35
61136;BME280;47021;51.340;12.432;2022-08-07T00:18:46;101111.13;;;18.17;49.42
61136;BME280;47021;51.340;12.432;2022-08-07T00:21:21;101112.78;;;18.01;49.54
61136;BME280;47021;51.340;12.432;2022-08-07T00:23:47;101116.41;;;18.00;49.90
61136;BME280;47021;51.340;12.432;2022-08-07T00:26:14;101104.53;;;17.86;50.22
61136;BME280;47021;51.340;12.432;2022-08-07T00:28:39;101103.13;;;17.92;49.78
61136;BME280;47021;51.340;12.432;2022-08-07T00:31:07;101101.66;;;17.97;49.95
61136;BME280;47021;51.340;12.432;2022-08-07T00:33:34;101097.22;;;17.98;49.79
61136;BME280;47021;51.340;12.432;2022-08-07T00:36:00;101096.72;;;17.94;49.74
61136;BME280;47021;51.340;12.432;2022-08-07T00:38:26;101098.50;;;17.76;49.97
61136;BME280;47021;51.340;12.432;2022-08-07T00:40:57;101101.66;;;17.80;50.54
61136;BME280;47021;51.340;12.432;2022-08-07T00:43:29;101100.69;;;17.81;50.20
61136;BME280;47021;51.340;12.432;2022-08-07T00:45:54;101105.53;;;17.85;50.27
61136;BME280;47021;51.340;12.432;2022-08-07T00:48:19;101097.97;;;17.73;50.61
61136;BME280;47021;51.340;12.432;2022-08-07T00:50:52;101097.13;;;17.72;50.69
61136;BME280;47021;51.340;12.432;2022-08-07T00:53:18;101101.53;;;17.54;51.30
61136;BME280;47021;51.340;12.432;2022-08-07T00:55:50;101100.16;;;17.50;51.14
61136;BME280;47021;51.340;12.432;2022-08-07T00:58:20;101100.13;;;17.59;50.91
61136;BME280;47021;51.340;12.432;2022-08-07T01:00:48;101090.38;;;17.33;51.23
61136;BME280;47021;51.340;12.432;2022-08-07T01:03:13;101090.31;;;17.42;51.16
61136;BME280;47021;51.340;12.432;2022-08-07T01:05:45;101102.78;;;17.50;51.21
61136;BME280;47021;51.340;12.432;2022-08-07T01:08:11;101095.03;;;17.48;51.16
61136;BME280;47021;51.340;12.432;2022-08-07T01:10:37;101091.31;;;17.41;51.26
61136;BME280;47021;51.340;12.432;2022-08-07T01:13:03;101088.22;;;17.46;51.10
61136;BME280;47021;51.340;12.432;2022-08-07T01:15:29;101089.19;;;17.45;51.48
61136;BME280;47021;51.340;12.432;2022-08-07T01:17:55;101093.81;;;17.43;51.31
61136;BME280;47021;51.340;12.432;2022-08-07T01:20:25;101087.41;;;17.45;51.22
61136;BME280;47021;51.340;12.432;2022-08-07T01:22:59;101082.00;;;17.37;51.44
61136;BME280;47021;51.340;12.432;2022-08-07T01:25:26;101084.72;;;17.28;51.80
61136;BME280;47021;51.340;12.432;2022-08-07T01:27:54;101083.59;;;17.30;51.68
61136;BME280;47021;51.340;12.432;2022-08-07T01:30:22;101086.97;;;17.23;51.72
61136;BME280;47021;51.340;12.432;2022-08-07T01:32:51;101087.84;;;17.14;52.51
61136;BME280;47021;51.340;12.432;2022-08-07T01:35:16;101091.00;;;17.17;52.23
61136;BME280;47021;51.340;12.432;2022-08-07T01:37:49;101096.00;;;17.20;51.82
61136;BME280;47021;51.340;12.432;2022-08-07T01:40:15;101088.09;;;17.20;51.71
61136;BME280;47021;51.340;12.432;2022-08-07T01:42:45;101092.75;;;16.99;52.63
61136;BME280;47021;51.340;12.432;2022-08-07T01:45:11;101093.44;;;17.01;52.36
61136;BME280;47021;51.340;12.432;2022-08-07T01:47:37;101091.13;;;16.88;51.92
61136;BME280;47021;51.340;12.432;2022-08-07T01:52:40;101098.88;;;17.00;52.67
61136;BME280;47021;51.340;12.432;2022-08-07T01:55:06;101095.41;;;16.89;52.61
61136;BME280;47021;51.340;12.432;2022-08-07T01:57:34;101091.38;;;16.95;52.34
61136;BME280;47021;51.340;12.432;2022-08-07T02:00:04;101091.53;;;16.93;52.72
61136;BME280;47021;51.340;12.432;2022-08-07T02:02:34;101093.78;;;16.88;52.84
61136;BME280;47021;51.340;12.432;2022-08-07T02:05:03;101091.50;;;16.57;53.45
61136;BME280;47021;51.340;12.432;2022-08-07T02:07:31;101104.38;;;16.60;53.52
61136;BME280;47021;51.340;12.432;2022-08-07T02:10:00;101095.78;;;16.67;53.10
61136;BME280;47021;51.340;12.432;2022-08-07T02:12:27;101094.38;;;16.44;54.26
61136;BME280;47021;51.340;12.432;2022-08-07T02:15:01;101100.09;;;16.40;54.02
61136;BME280;47021;51.340;12.432;2022-08-07T02:17:32;101092.63;;;16.54;53.54
61136;BME280;47021;51.340;12.432;2022-08-07T02:20:00;101096.19;;;16.72;53.61
61136;BME280;47021;51.340;12.432;2022-08-07T02:22:27;101083.94;;;16.71;53.46
61136;BME280;47021;51.340;12.432;2022-08-07T02:25:02;101097.28;;;16.70;53.23
61136;BME280;47021;51.340;12.432;2022-08-07T02:27:31;101090.50;;;16.67;53.62
61136;BME280;47021;51.340;12.432;2022-08-07T02:29:59;101089.97;;;16.45;54.04
61136;BME280;47021;51.340;12.432;2022-08-07T02:32:25;101095.25;;;16.35;54.91
61136;BME280;47021;51.340;12.432;2022-08-07T02:34:51;101090.09;;;16.53;54.38
61136;BME280;47021;51.340;12.432;2022-08-07T02:37:17;101097.06;;;16.54;54.12
61136;BME280;47021;51.340;12.432;2022-08-07T02:39:48;101096.91;;;16.36;54.28
61136;BME280;47021;51.340;12.432;2022-08-07T02:42:21;101099.50;;;16.46;54.29
61136;BME280;47021;51.340;12.432;2022-08-07T02:44:47;101098.13;;;16.32;54.44
61136;BME280;47021;51.340;12.432;2022-08-07T02:47:13;101106.19;;;16.31;55.28
61136;BME280;47021;51.340;12.432;2022-08-07T02:49:41;101100.09;;;16.40;54.63
61136;BME280;47021;51.340;12.432;2022-08-07T02:52:14;101097.88;;;16.54;54.60
61136;BME280;47021;51.340;12.432;2022-08-07T02:54:41;101093.41;;;16.55;54.16
61136;BME280;47021;51.340;12.432;2022-08-07T02:57:07;101098.84;;;16.34;54.59
61136;BME280;47021;51.340;12.432;2022-08-07T02:59:36;101100.66;;;16.43;54.49
61136;BME280;47021;51.340;12.432;2022-08-07T03:02:08;101094.97;;;16.38;55.00
61136;BME280;47021;51.340;12.432;2022-08-07T03:04:33;101098.72;;;16.45;54.73
61136;BME280;47021;51.340;12.432;2022-08-07T03:06:59;101099.56;;;16.36;54.60
61136;BME280;47021;51.340;12.432;2022-08-07T03:09:26;101098.44;;;16.29;54.92
61136;BME280;47021;51.340;12.432;2022-08-07T03:12:00;101092.88;;;16.42;54.68
61136;BME280;47021;51.340;12.432;2022-08-07T03:14:38;101093.44;;;16.45;54.75
61136;BME280;47021;51.340;12.432;2022-08-07T03:17:12;101088.28;;;16.44;54.87
61136;BME280;47021;51.340;12.432;2022-08-07T03:19:37;101088.44;;;16.42;54.82
61136;BME280;47021;51.340;12.432;2022-08-07T03:22:10;101088.47;;;16.04;55.72
61136;BME280;47021;51.340;12.432;2022-08-07T03:27:22;101083.44;;;16.30;55.54
61136;BME280;47021;51.340;12.432;2022-08-07T03:29:49;101080.94;;;16.28;55.57
61136;BME280;47021;51.340;12.432;2022-08-07T03:32:14;101085.97;;;16.21;55.28
61136;BME280;47021;51.340;12.432;2022-08-07T03:34:41;101079.72;;;16.22;55.84
61136;BME280;47021;51.340;12.432;2022-08-07T03:37:09;101083.84;;;16.25;55.51
61136;BME280;47021;51.340;12.432;2022-08-07T03:39:35;101080.84;;;16.20;55.47
61136;BME280;47021;51.340;12.432;2022-08-07T03:42:08;101078.03;;;16.21;55.78
61136;BME280;47021;51.340;12.432;2022-08-07T03:44:40;101077.09;;;16.03;55.57
61136;BME280;47021;51.340;12.432;2022-08-07T03:47:05;101076.50;;;15.71;56.66
61136;BME280;47021;51.340;12.432;2022-08-07T03:49:38;101083.31;;;16.02;55.81
61136;BME280;47021;51.340;12.432;2022-08-07T03:52:05;101078.34;;;15.99;56.22
61136;BME280;47021;51.340;12.432;2022-08-07T03:54:50;101079.72;;;16.13;55.43
61136;BME280;47021;51.340;12.432;2022-08-07T03:57:25;101079.31;;;16.08;55.33
61136;BME280;47021;51.340;12.432;2022-08-07T03:59:50;101079.19;;;15.90;56.06
61136;BME280;47021;51.340;12.432;2022-08-07T04:02:23;101078.72;;;16.04;55.49
61136;BME280;47021;51.340;12.432;2022-08-07T04:04:49;101083.84;;;16.25;55.03
61136;BME280;47021;51.340;12.432;2022-08-07T04:07:15;101089.69;;;16.29;55.16
61136;BME280;47021;51.340;12.432;2022-08-07T04:09:46;101089.44;;;16.22;54.82
61136;BME280;47021;51.340;12.432;2022-08-07T04:12:19;101086.53;;;16.15;55.53
61136;BME280;47021;51.340;12.432;2022-08-07T04:14:45;101087.91;;;16.29;54.56
61136;BME280;47021;51.340;12.432;2022-08-07T04:17:11;101089.97;;;16.35;54.87
61136;BME280;47021;51.340;12.432;2022-08-07T04:19:39;101085.38;;;16.37;54.81
61136;BME280;47021;51.340;12.432;2022-08-07T04:22:04;101092.06;;;16.32;55.30
61136;BME280;47021;51.340;12.432;2022-08-07T04:24:30;101093.00;;;16.40;54.94
61136;BME280;47021;51.340;12.432;2022-08-07T04:26:55;101095.50;;;16.32;54.87
61136;BME280;47021;51.340;12.432;2022-08-07T04:29:35;101093.41;;;16.55;54.78
61136;BME280;47021;51.340;12.432;2022-08-07T04:34:51;101090.06;;;16.72;54.04
61136;BME280;47021;51.340;12.432;2022-08-07T04:37:16;101083.88;;;16.54;54.64
61136;BME280;47021;51.340;12.432;2022-08-07T04:39:47;101085.63;;;16.72;54.40
61136;BME280;47021;51.340;12.432;2022-08-07T04:42:19;101092.94;;;16.88;54.38
61136;BME280;47021;51.340;12.432;2022-08-07T04:44:46;101094.72;;;16.87;54.35
61136;BME280;47021;51.340;12.432;2022-08-07T04:47:20;101100.25;;;16.94;54.24
61136;BME280;47021;51.340;12.432;2022-08-07T04:57:57;101092.94;;;17.25;53.11
61136;BME280;47021;51.340;12.432;2022-08-07T05:00:33;101098.25;;;17.15;53.58
61136;BME280;47021;51.340;12.432;2022-08-07T05:03:17;101094.63;;;16.89;53.70
61136;BME280;47021;51.340;12.432;2022-08-07T05:05:58;101099.47;;;16.84;53.95
61136;BME280;47021;51.340;12.432;2022-08-07T05:10:51;101104.06;;;17.46;52.74
61136;BME280;47021;51.340;12.432;2022-08-07T05:13:26;101108.13;;;17.40;52.44
61136;BME280;47021;51.340;12.432;2022-08-07T05:15:52;101110.31;;;17.45;52.16
61136;BME280;47021;51.340;12.432;2022-08-07T05:18:27;101110.47;;;17.53;52.01
61136;BME280;47021;51.340;12.432;2022-08-07T05:20:55;101112.06;;;17.63;51.59
61136;BME280;47021;51.340;12.432;2022-08-07T05:23:22;101106.66;;;17.83;51.44
61136;BME280;47021;51.340;12.432;2022-08-07T05:25:51;101112.28;;;17.52;51.79
61136;BME280;47021;51.340;12.432;2022-08-07T05:28:19;101108.63;;;17.81;51.17
61136;BME280;47021;51.340;12.432;2022-08-07T05:30:44;101111.28;;;17.98;50.89
61136;BME280;47021;51.340;12.432;2022-08-07T05:33:11;101108.09;;;18.12;50.34
61136;BME280;47021;51.340;12.432;2022-08-07T05:35:37;101110.06;;;18.28;49.32
61136;BME280;47021;51.340;12.432;2022-08-07T05:38:03;101109.22;;;18.45;49.18
61136;BME280;47021;51.340;12.432;2022-08-07T05:40:35;101112.94;;;18.17;49.73
61136;BME280;47021;51.340;12.432;2022-08-07T05:43:02;101115.88;;;18.14;49.21
61136;BME280;47021;51.340;12.432;2022-08-07T05:45:27;101113.38;;;18.30;49.46
61136;BME280;47021;51.340;12.432;2022-08-07T05:48:08;101119.47;;;18.66;48.55
61136;BME280;47021;51.340;12.432;2022-08-07T05:50:33;101118.91;;;18.80;47.47
61136;BME280;47021;51.340;12.432;2022-08-07T05:53:00;101119.78;;;18.88;47.52
61136;BME280;47021;51.340;12.432;2022-08-07T05:55:28;101115.66;;;18.86;47.04
61136;BME280;47021;51.340;12.432;2022-08-07T05:57:53;101115.19;;;18.90;46.42
61136;BME280;47021;51.340;12.432;2022-08-07T06:00:24;101119.72;;;19.06;46.41
61136;BME280;47021;51.340;12.432;2022-08-07T06:02:50;101119.84;;;19.04;46.46
61136;BME280;47021;51.340;12.432;2022-08-07T06:05:17;101124.75;;;19.17;46.37
61136;BME280;47021;51.340;12.432;2022-08-07T06:07:44;101106.00;;;19.36;45.99
61136;BME280;47021;51.340;12.432;2022-08-07T06:10:11;101116.63;;;19.19;45.84
61136;BME280;47021;51.340;12.432;2022-08-07T06:12:36;101119.09;;;19.46;45.19
61136;BME280;47021;51.340;12.432;2022-08-07T06:15:01;101105.94;;;19.78;44.82
61136;BME280;47021;51.340;12.432;2022-08-07T06:17:29;101107.88;;;19.60;45.08
61136;BME280;47021;51.340;12.432;2022-08-07T06:19:55;101101.13;;;19.65;44.57
61136;BME280;47021;51.340;12.432;2022-08-07T06:22:21;101103.81;;;19.82;43.95
61136;BME280;47021;51.340;12.432;2022-08-07T06:24:49;101107.97;;;19.84;44.57
61136;BME280;47021;51.340;12.432;2022-08-07T06:27:26;101099.16;;;19.84;44.17
61136;BME280;47021;51.340;12.432;2022-08-07T06:29:58;101101.50;;;19.95;44.31
61136;BME280;47021;51.340;12.432;2022-08-07T06:32:25;101108.31;;;20.05;44.49
61136;BME280;47021;51.340;12.432;2022-08-07T06:34:50;101107.50;;;20.21;44.18
61136;BME280;47021;51.340;12.432;2022-08-07T06:37:15;101105.38;;;20.65;43.04
61136;BME280;47021;51.340;12.432;2022-08-07T06:39:42;101107.50;;;20.61;42.92
61136;BME280;47021;51.340;12.432;2022-08-07T06:42:10;101108.97;;;20.88;42.18
61136;BME280;47021;51.340;12.432;2022-08-07T06:44:37;101110.44;;;20.90;42.70
61136;BME280;47021;51.340;12.432;2022-08-07T06:47:03;101113.41;;;21.03;42.43
61136;BME280;47021;51.340;12.432;2022-08-07T06:49:31;101113.09;;;20.90;42.74
61136;BME280;47021;51.340;12.432;2022-08-07T06:51:57;101118.19;;;21.16;42.60
61136;BME280;47021;51.340;12.432;2022-08-07T06:54:25;101112.22;;;21.22;42.30
61136;BME280;47021;51.340;12.432;2022-08-07T06:56:52;101110.81;;;21.34;42.10
61136;BME280;47021;51.340;12.432;2022-08-07T06:59:22;101105.63;;;21.49;42.08
61136;BME280;47021;51.340;12.432;2022-08-07T07:01:57;101105.78;;;21.78;41.66
61136;BME280;47021;51.340;12.432;2022-08-07T07:04:28;101101.81;;;21.74;41.43
61136;BME280;47021;51.340;12.432;2022-08-07T07:07:01;101107.94;;;21.44;41.86
61136;BME280;47021;51.340;12.432;2022-08-07T07:09:29;101104.38;;;21.59;41.18
61136;BME280;47021;51.340;12.432;2022-08-07T07:14:21;101102.22;;;22.39;40.17
61136;BME280;47021;51.340;12.432;2022-08-07T07:16:48;101100.31;;;22.25;40.58
61136;BME280;47021;51.340;12.432;2022-08-07T07:19:15;101103.94;;;21.78;41.21
61136;BME280;47021;51.340;12.432;2022-08-07T07:21:43;101102.47;;;22.07;41.48
61136;BME280;47021;51.340;12.432;2022-08-07T07:24:10;101097.81;;;22.46;40.27
61136;BME280;47021;51.340;12.432;2022-08-07T07:26:41;101096.34;;;21.98;40.88
61136;BME280;47021;51.340;12.432;2022-08-07T07:29:11;101098.06;;;22.36;40.17
61136;BME280;47021;51.340;12.432;2022-08-07T07:31:49;101093.41;;;22.53;40.38
61136;BME280;47021;51.340;12.432;2022-08-07T07:34:27;101088.91;;;22.91;39.57
61136;BME280;47021;51.340;12.432;2022-08-07T07:36:54;101096.06;;;23.05;39.30
61136;BME280;47021;51.340;12.432;2022-08-07T07:39:27;101085.13;;;23.00;39.27
61136;BME280;47021;51.340;12.432;2022-08-07T07:41:54;101087.72;;;23.37;38.46
61136;BME280;47021;51.340;12.432;2022-08-07T07:44:22;101081.78;;;23.27;38.55
61136;BME280;47021;51.340;12.432;2022-08-07T07:46:49;101085.56;;;23.33;38.14
61136;BME280;47021;51.340;12.432;2022-08-07T07:49:17;101083.53;;;23.49;37.76
61136;BME280;47021;51.340;12.432;2022-08-07T07:51:43;101078.03;;;23.93;37.90
61136;BME280;47021;51.340;12.432;2022-08-07T07:54:15;101074.31;;;24.30;37.04
61136;BME280;47021;51.340;12.432;2022-08-07T07:56:43;101073.06;;;24.26;37.02
61136;BME280;47021;51.340;12.432;2022-08-07T07:59:09;101074.94;;;23.68;38.13
61136;BME280;47021;51.340;12.432;2022-08-07T08:01:37;101065.41;;;23.80;37.72
61136;BME280;47021;51.340;12.432;2022-08-07T08:04:04;101069.00;;;24.09;36.50
61136;BME280;47021;51.340;12.432;2022-08-07T08:06:31;101068.88;;;24.17;36.52
61136;BME280;47021;51.340;12.432;2022-08-07T08:09:03;101065.00;;;24.47;36.25
61136;BME280;47021;51.340;12.432;2022-08-07T08:11:31;101065.25;;;24.24;36.39
61136;BME280;47021;51.340;12.432;2022-08-07T08:14:10;101061.22;;;24.63;35.54
61136;BME280;47021;51.340;12.432;2022-08-07T08:16:40;101061.31;;;24.76;33.98
61136;BME280;47021;51.340;12.432;2022-08-07T08:19:07;101064.13;;;24.95;35.04
61136;BME280;47021;51.340;12.432;2022-08-07T08:21:34;101062.28;;;24.68;34.72
61136;BME280;47021;51.340;12.432;2022-08-07T08:24:04;101058.78;;;24.40;35.14
61136;BME280;47021;51.340;12.432;2022-08-07T08:26:37;101062.00;;;24.57;35.22
61136;BME280;47021;51.340;12.432;2022-08-07T08:29:03;101055.50;;;25.00;35.07
61136;BME280;47021;51.340;12.432;2022-08-07T08:31:33;101061.63;;;24.66;35.36
61136;BME280;47021;51.340;12.432;2022-08-07T08:34:05;101065.00;;;24.75;33.24
61136;BME280;47021;51.340;12.432;2022-08-07T08:36:44;101053.84;;;24.99;32.68
61136;BME280;47021;51.340;12.432;2022-08-07T08:39:10;101051.03;;;25.13;31.18
61136;BME280;47021;51.340;12.432;2022-08-07T08:52:17;101039.34;;;26.01;29.64
61136;BME280;47021;51.340;12.432;2022-08-07T08:57:34;101042.69;;;26.16;29.17
61136;BME280;47021;51.340;12.432;2022-08-07T09:00:05;101038.09;;;26.63;28.68
61136;BME280;47021;51.340;12.432;2022-08-07T09:02:35;101045.13;;;26.44;29.30
61136;BME280;47021;51.340;12.432;2022-08-07T09:07:48;101035.22;;;26.05;29.94
61136;BME280;47021;51.340;12.432;2022-08-07T09:13:12;101043.75;;;25.42;30.01
61136;BME280;47021;51.340;12.432;2022-08-07T09:15:53;101029.22;;;25.77;29.88
61136;BME280;47021;51.340;12.432;2022-08-07T09:18:25;101033.97;;;25.94;29.83
61136;BME280;47021;51.340;12.432;2022-08-07T09:37:31;101019.78;;;26.07;28.63
61136;BME280;47021;51.340;12.432;2022-08-07T09:39:58;101017.84;;;26.86;27.64
61136;BME280;47021;51.340;12.432;2022-08-07T09:45:10;101014.56;;;26.91;27.58
61136;BME280;47021;51.340;12.432;2022-08-07T09:53:09;100994.94;;;27.72;26.58
61136;BME280;47021;51.340;12.432;2022-08-07T09:58:22;100988.91;;;26.31;28.30
61136;BME280;47021;51.340;12.432;2022-08-07T10:01:01;100998.72;;;26.70;28.62
61136;BME280;47021;51.340;12.432;2022-08-07T10:04:05;100983.16;;;27.42;27.23
61136;BME280;47021;51.340;12.432;2022-08-07T10:24:49;100941.59;;;27.82;26.98
61136;BME280;47021;51.340;12.432;2022-08-07T10:30:02;100942.25;;;28.03;26.42
61136;BME280;47021;51.340;12.432;2022-08-07T10:32:53;100948.94;;;27.62;27.29
61136;BME280;47021;51.340;12.432;2022-08-07T10:45:48;100928.88;;;29.05;25.23
61136;BME280;47021;51.340;12.432;2022-08-07T10:50:48;100915.72;;;28.49;24.92
61136;BME280;47021;51.340;12.432;2022-08-07T11:04:27;100894.25;;;27.63;26.32
61136;BME280;47021;51.340;12.432;2022-08-07T11:07:04;100896.47;;;27.91;25.38
61136;BME280;47021;51.340;12.432;2022-08-07T11:09:35;100895.84;;;28.32;24.83
61136;BME280;47021;51.340;12.432;2022-08-07T11:12:20;100894.81;;;27.90;25.41
61136;BME280;47021;51.340;12.432;2022-08-07T11:15:01;100883.22;;;27.47;26.03
61136;BME280;47021;51.340;12.432;2022-08-07T11:17:45;100878.47;;;28.16;24.99
61136;BME280;47021;51.340;12.432;2022-08-07T11:20:20;100883.56;;;29.31;23.92
61136;BME280;47021;51.340;12.432;2022-08-07T11:34:12;100865.94;;;28.46;24.45
61136;BME280;47021;51.340;12.432;2022-08-07T11:42:17;100871.19;;;29.30;23.11
61136;BME280;47021;51.340;12.432;2022-08-07T12:11:30;100826.50;;;30.50;23.05
61136;BME280;47021;51.340;12.432;2022-08-07T12:14:17;100836.88;;;30.19;22.61
61136;BME280;47021;51.340;12.432;2022-08-07T12:16:57;100841.06;;;29.86;23.30
61136;BME280;47021;51.340;12.432;2022-08-07T12:27:15;100822.88;;;28.35;24.86
61136;BME280;47021;51.340;12.432;2022-08-07T12:34:51;100811.03;;;28.84;24.13
61136;BME280;47021;51.340;12.432;2022-08-07T12:37:17;100813.63;;;29.89;22.83
61136;BME280;47021;51.340;12.432;2022-08-07T12:39:45;100809.31;;;29.54;23.23
61136;BME280;47021;51.340;12.432;2022-08-07T12:42:20;100808.47;;;29.42;23.30
61136;BME280;47021;51.340;12.432;2022-08-07T12:44:48;100811.38;;;29.98;23.19
61136;BME280;47021;51.340;12.432;2022-08-07T12:52:35;100788.56;;;30.85;21.73
61136;BME280;47021;51.340;12.432;2022-08-07T12:57:52;100783.03;;;31.25;21.67
61136;BME280;47021;51.340;12.432;2022-08-07T13:00:17;100780.72;;;30.84;21.99
61136;BME280;47021;51.340;12.432;2022-08-07T13:15:52;100775.59;;;31.15;20.94
61136;BME280;47021;51.340;12.432;2022-08-07T13:23:36;100770.84;;;31.22;21.23
61136;BME280;47021;51.340;12.432;2022-08-07T13:28:29;100770.50;;;30.41;22.26
61136;BME280;47021;51.340;12.432;2022-08-07T13:31:09;100775.59;;;29.51;22.14
61136;BME280;47021;51.340;12.432;2022-08-07T13:33:38;100772.28;;;29.14;23.14
61136;BME280;47021;51.340;12.432;2022-08-07T13:36:11;100761.22;;;28.93;23.09
61136;BME280;47021;51.340;12.432;2022-08-07T13:43:41;100756.88;;;29.21;23.43
61136;BME280;47021;51.340;12.432;2022-08-07T13:46:07;100751.44;;;28.98;23.53
61136;BME280;47021;51.340;12.432;2022-08-07T13:48:36;100756.50;;;29.53;22.54
61136;BME280;47021;51.340;12.432;2022-08-07T13:53:32;100756.28;;;29.66;22.28
61136;BME280;47021;51.340;12.432;2022-08-07T13:55:57;100746.09;;;29.56;22.38
61136;BME280;47021;51.340;12.432;2022-08-07T13:58:23;100742.19;;;29.87;21.77
61136;BME280;47021;51.340;12.432;2022-08-07T14:00:51;100734.38;;;30.14;21.86
61136;BME280;47021;51.340;12.432;2022-08-07T14:03:22;100732.66;;;30.64;21.60
61136;BME280;47021;51.340;12.432;2022-08-07T14:05:53;100731.91;;;29.84;22.05
61136;BME280;47021;51.340;12.432;2022-08-07T14:11:04;100724.66;;;29.61;22.57
61136;BME280;47021;51.340;12.432;2022-08-07T14:13:43;100722.72;;;30.36;21.72
61136;BME280;47021;51.340;12.432;2022-08-07T14:16:12;100719.63;;;31.27;20.83
61136;BME280;47021;51.340;12.432;2022-08-07T14:18:43;100722.41;;;30.49;21.81
61136;BME280;47021;51.340;12.432;2022-08-07T14:21:10;100712.81;;;31.42;20.90
61136;BME280;47021;51.340;12.432;2022-08-07T14:23:36;100718.59;;;30.06;22.76
61136;BME280;47021;51.340;12.432;2022-08-07T14:26:09;100726.19;;;29.22;22.96
61136;BME280;47021;51.340;12.432;2022-08-07T14:28:42;100726.88;;;28.95;22.93
61136;BME280;47021;51.340;12.432;2022-08-07T14:31:09;100723.50;;;29.22;22.82
61136;BME280;47021;51.340;12.432;2022-08-07T14:33:43;100723.16;;;29.30;22.74
61136;BME280;47021;51.340;12.432;2022-08-07T14:36:23;100726.91;;;29.18;22.01
61136;BME280;47021;51.340;12.432;2022-08-07T14:38:49;100715.78;;;29.49;22.08
61136;BME280;47021;51.340;12.432;2022-08-07T14:41:29;100707.75;;;30.17;21.67
61136;BME280;47021;51.340;12.432;2022-08-07T14:44:00;100712.84;;;29.51;22.46
61136;BME280;47021;51.340;12.432;2022-08-07T14:46:26;100700.38;;;29.84;21.78
61136;BME280;47021;51.340;12.432;2022-08-07T14:48:54;100712.81;;;29.74;22.16
61136;BME280;47021;51.340;12.432;2022-08-07T14:51:22;100701.00;;;29.86;21.36
61136;BME280;47021;51.340;12.432;2022-08-07T14:53:50;100702.13;;;29.90;21.47
61136;BME280;47021;51.340;12.432;2022-08-07T14:56:18;100698.75;;;29.83;21.51
61136;BME280;47021;51.340;12.432;2022-08-07T14:58:47;100698.28;;;30.43;21.36
61136;BME280;47021;51.340;12.432;2022-08-07T15:04:00;100697.13;;;29.59;21.89
61136;BME280;47021;51.340;12.432;2022-08-07T15:06:33;100694.59;;;30.94;21.21
61136;BME280;47021;51.340;12.432;2022-08-07T15:09:09;100697.75;;;30.01;21.59
61136;BME280;47021;51.340;12.432;2022-08-07T15:11:38;100700.06;;;29.69;21.76
61136;BME280;47021;51.340;12.432;2022-08-07T15:14:06;100697.97;;;30.56;20.89
61136;BME280;47021;51.340;12.432;2022-08-07T15:16:46;100699.00;;;31.00;20.75
61136;BME280;47021;51.340;12.432;2022-08-07T15:19:18;100698.50;;;29.85;22.16
61136;BME280;47021;51.340;12.432;2022-08-07T15:21:50;100702.31;;;29.49;22.19
61136;BME280;47021;51.340;12.432;2022-08-07T15:24:24;100701.09;;;29.80;21.97
61136;BME280;47021;51.340;12.432;2022-08-07T15:27:11;100698.94;;;30.33;21.24
61136;BME280;47021;51.340;12.432;2022-08-07T15:29:42;100696.84;;;29.95;21.78
61136;BME280;47021;51.340;12.432;2022-08-07T15:32:08;100688.31;;;29.87;21.99
61136;BME280;47021;51.340;12.432;2022-08-07T15:34:39;100692.25;;;29.10;23.03
61136;BME280;47021;51.340;12.432;2022-08-07T15:37:11;100682.56;;;29.95;21.78
61136;BME280;47021;51.340;12.432;2022-08-07T15:39:39;100684.38;;;30.06;21.88
61136;BME280;47021;51.340;12.432;2022-08-07T15:42:06;100682.28;;;29.57;22.14
61136;BME280;47021;51.340;12.432;2022-08-07T15:50:05;100674.13;;;29.91;21.56
61136;BME280;47021;51.340;12.432;2022-08-07T15:52:46;100674.31;;;30.30;20.75
61136;BME280;47021;51.340;12.432;2022-08-07T15:55:17;100670.09;;;30.34;21.10
61136;BME280;47021;51.340;12.432;2022-08-07T15:57:50;100663.25;;;31.31;20.69
61136;BME280;47021;51.340;12.432;2022-08-07T16:00:18;100670.53;;;30.31;21.34
61136;BME280;47021;51.340;12.432;2022-08-07T16:02:48;100660.00;;;30.91;20.71
61136;BME280;47021;51.340;12.432;2022-08-07T16:05:18;100660.38;;;30.33;20.95
61136;BME280;47021;51.340;12.432;2022-08-07T16:08:07;100660.56;;;30.15;21.37
61136;BME280;47021;51.340;12.432;2022-08-07T16:10:46;100654.94;;;29.88;21.53
61136;BME280;47021;51.340;12.432;2022-08-07T16:47:30;100631.94;;;34.34;17.40
61136;BME280;47021;51.340;12.432;2022-08-07T16:55:29;100631.75;;;35.45;16.65
61136;BME280;47021;51.340;12.432;2022-08-07T17:08:19;100646.22;;;31.95;20.27
61136;BME280;47021;51.340;12.432;2022-08-07T17:11:00;100646.72;;;32.72;19.29
61136;BME280;47021;51.340;12.432;2022-08-07T17:13:51;100646.94;;;33.03;19.18
61136;BME280;47021;51.340;12.432;2022-08-07T17:19:07;100653.72;;;31.88;19.99
61136;BME280;47021;51.340;12.432;2022-08-07T17:21:57;100647.59;;;31.50;20.71
61136;BME280;47021;51.340;12.432;2022-08-07T17:32:22;100642.09;;;32.73;19.88